Briefing drone pour Seynod

Rechercher une autre localisation

Conditions de vol :


Nous sommes le : Lundi 15 avril 2024
Il est 21:48 UTC (23:48 LT)

Lever de soleil : 04:21 UTC (06:21 LT)
Coucher de soleil : 18:49 UTC (20:49 LT)

Météo

L'essentiel des conditions de vol

VIGILANCE MÉTÉO FRANCE - Haute-Savoie (74)
Vigilance Jaune : Pluie-inondation / Avalanches
METAR de LFLP
LFLP 152130Z AUTO 31011KT 280V340 9999 BKN058 OVC070 13/04 Q1017

Date d'émission: 15/04/2024
Heure d'émission: 21:30 UTC
Vent: 310° (variable du 280° au 340°) pour 11 KT (20 km/h)
Visibilité horizontale: > 10 km
Plafond :
- Nuages morcelés à 5800ft (1768m)
- Couvert à 7000ft (2134m)
Température: 13 °C
Point de rosée: 4 °C
Humidité: 54%
Pression (QNH): 1017 hPa
TAF de LFLP
AMD LFLP 151804Z 1518/1615 CNL

Conditions prévues :

Heure d'émission : Bulletin éffectué le 15 à 18:00 UTC
Prévision : Valide du 15 a 18:00 UTC au 16 a 15:00 UTC
Nuages : à 0ft (0 m)
WEBCAM POUR SEYNOD

Réglementation

Voler en sécurité

CARTES AERONAUTIQUE 1/500.000
CARTE AZBA (Reseau basse altitude)
CARTES VAC (LFLP)
SUP AIP




Chargement des AIP...
NOTAM (SEYNOD + Terrain à proximité / FIR )




Chargement des NOTAMS...
CONTACT PREFECTURE 74
Haute-Savoie (74) : [email protected]


Avertissement : Les données mises à disposition sont indicatives. Oxygène Drone ne pourra être tenu responsable de dégâts causés aux biens et aux personnes.